createdAt,value
2023-05-24T00:00:57.325Z,12.10
2023-05-24T00:04:00.997Z,12.93
2023-05-24T00:07:03.685Z,12.27
2023-05-24T00:10:06.307Z,14.03
2023-05-24T00:13:08.452Z,16.00
2023-05-24T00:16:10.870Z,14.00
2023-05-24T00:19:18.284Z,12.85
2023-05-24T00:22:21.836Z,12.20
2023-05-24T00:25:23.931Z,12.93
2023-05-24T00:28:26.044Z,12.48
2023-05-24T00:31:28.240Z,12.90
2023-05-24T00:34:30.427Z,12.35
2023-05-24T00:37:32.530Z,13.10
2023-05-24T00:40:34.767Z,13.57
2023-05-24T00:43:37.249Z,13.10
2023-05-24T00:46:39.551Z,13.00
2023-05-24T00:49:41.947Z,12.10
2023-05-24T00:52:45.161Z,11.23
2023-05-24T00:55:47.730Z,11.30
2023-05-24T00:58:51.015Z,11.85
2023-05-24T01:01:55.715Z,13.57
2023-05-24T01:04:58.182Z,13.02
2023-05-24T01:08:15.134Z,12.30
2023-05-24T01:11:17.250Z,11.93
2023-05-24T01:14:23.934Z,10.80
2023-05-24T01:17:33.040Z,13.98
2023-05-24T01:20:38.919Z,10.30
2023-05-24T01:23:44.069Z,13.23
2023-05-24T01:27:06.960Z,14.07
2023-05-24T01:30:10.430Z,13.30
2023-05-24T01:33:12.974Z,12.63
2023-05-24T01:36:15.482Z,12.05
2023-05-24T01:39:18.043Z,11.13
2023-05-24T01:42:36.718Z,10.83
2023-05-24T01:45:38.816Z,12.25
2023-05-24T01:48:47.140Z,12.05
2023-05-24T01:51:51.639Z,10.38
2023-05-24T01:54:55.975Z,12.83
2023-05-24T01:58:00.956Z,12.63
2023-05-24T02:01:03.284Z,11.13
2023-05-24T02:04:05.579Z,10.68
2023-05-24T02:07:07.722Z,15.45
2023-05-24T02:10:10.129Z,12.57
2023-05-24T02:13:12.177Z,10.90
2023-05-24T02:16:14.798Z,10.07
2023-05-24T02:19:17.534Z,12.60
2023-05-24T02:22:22.381Z,14.18
2023-05-24T02:25:24.679Z,12.90
2023-05-24T02:28:26.865Z,15.40
2023-05-24T02:31:29.736Z,14.38
2023-05-24T02:34:31.922Z,15.20
2023-05-24T02:37:33.985Z,17.42
2023-05-24T02:40:36.107Z,12.67
2023-05-24T02:43:38.892Z,21.50
2023-05-24T02:46:41.039Z,18.10
2023-05-24T02:49:43.335Z,13.98
2023-05-24T02:52:45.459Z,15.25
2023-05-24T02:55:47.725Z,14.70
2023-05-24T02:58:50.832Z,13.83
2023-05-24T03:01:53.069Z,15.52
2023-05-24T03:04:55.181Z,17.13
2023-05-24T03:07:58.516Z,18.08
2023-05-24T03:11:01.148Z,16.80
2023-05-24T03:14:03.357Z,16.73
2023-05-24T03:17:05.774Z,16.33
2023-05-24T03:20:09.266Z,16.83
2023-05-24T03:23:11.921Z,18.25
2023-05-24T03:26:14.045Z,15.27
2023-05-24T03:29:16.106Z,14.02
2023-05-24T03:32:18.356Z,15.93
2023-05-24T03:35:20.571Z,17.73
2023-05-24T03:38:23.355Z,16.80
2023-05-24T03:41:27.658Z,18.23
2023-05-24T03:44:33.471Z,19.15
2023-05-24T03:47:35.694Z,19.75
2023-05-24T03:50:38.186Z,20.67
2023-05-24T03:53:40.280Z,19.40
2023-05-24T03:56:42.337Z,19.93
2023-05-24T03:59:44.437Z,18.27
2023-05-24T04:02:46.664Z,26.92
2023-05-24T04:05:49.060Z,20.80
2023-05-24T04:08:52.863Z,17.83
2023-05-24T04:11:54.996Z,20.52
2023-05-24T04:14:57.110Z,17.48
2023-05-24T04:18:00.683Z,16.83
2023-05-24T04:21:02.951Z,18.13
2023-05-24T04:24:05.950Z,16.03
2023-05-24T04:27:08.195Z,16.35
2023-05-24T04:30:10.767Z,15.88
2023-05-24T04:33:13.058Z,19.10
2023-05-24T04:36:15.146Z,14.88
2023-05-24T04:39:19.034Z,12.17
2023-05-24T04:42:21.317Z,11.93
2023-05-24T04:45:23.578Z,14.73
2023-05-24T04:48:25.800Z,12.13
2023-05-24T04:51:29.484Z,12.70
2023-05-24T04:54:31.626Z,15.30
2023-05-24T04:57:33.682Z,11.27
2023-05-24T05:00:35.802Z,12.80
2023-05-24T05:03:38.058Z,14.93
2023-05-24T05:06:40.728Z,16.08
2023-05-24T05:09:42.905Z,14.63
2023-05-24T05:12:45.198Z,11.18
2023-05-24T05:15:47.269Z,13.43
2023-05-24T05:18:49.384Z,15.50
2023-05-24T05:21:51.813Z,13.77
2023-05-24T05:24:54.002Z,10.90
2023-05-24T05:27:56.209Z,14.73
2023-05-24T05:30:58.960Z,18.85
2023-05-24T05:34:01.262Z,13.73
2023-05-24T05:37:03.475Z,13.23
2023-05-24T05:40:06.029Z,13.63
2023-05-24T05:43:11.040Z,13.43
2023-05-24T05:46:16.250Z,15.02
2023-05-24T05:49:18.698Z,11.90
2023-05-24T05:52:21.015Z,12.50
2023-05-24T05:55:23.546Z,12.00
2023-05-24T05:58:25.940Z,12.60
2023-05-24T06:01:28.149Z,13.27
2023-05-24T06:04:30.331Z,19.08
2023-05-24T06:07:32.749Z,12.73
2023-05-24T06:10:35.025Z,12.50
2023-05-24T06:13:37.156Z,11.93
2023-05-24T06:16:43.743Z,10.95
2023-05-24T06:19:46.016Z,10.43
2023-05-24T06:22:49.920Z,15.98
2023-05-24T06:25:52.161Z,12.33
2023-05-24T06:28:54.420Z,12.32
2023-05-24T06:31:56.937Z,14.63
2023-05-24T06:34:59.247Z,17.95
2023-05-24T06:38:01.434Z,20.92
2023-05-24T06:41:03.788Z,11.87
2023-05-24T06:44:06.459Z,10.40
2023-05-24T06:47:09.588Z,12.60
2023-05-24T06:50:12.071Z,10.90
2023-05-24T06:53:14.449Z,13.63
2023-05-24T06:56:16.719Z,13.20
2023-05-24T06:59:19.021Z,8.82
2023-05-24T07:02:26.767Z,12.23
2023-05-24T07:05:29.010Z,12.15
2023-05-24T07:08:31.421Z,11.98
2023-05-24T07:11:33.640Z,13.73
2023-05-24T07:14:35.908Z,11.63
2023-05-24T07:17:38.178Z,15.55
2023-05-24T07:20:40.665Z,10.50
2023-05-24T07:23:43.122Z,9.68
2023-05-24T07:26:45.285Z,11.07
2023-05-24T07:29:48.426Z,10.35
2023-05-24T07:32:51.381Z,13.82
2023-05-24T07:35:53.862Z,9.23
2023-05-24T07:38:56.137Z,8.43
2023-05-24T07:41:58.272Z,12.53
2023-05-24T07:45:00.406Z,9.68
2023-05-24T07:48:02.698Z,10.30
2023-05-24T07:51:04.956Z,7.95
2023-05-24T07:54:07.323Z,9.10
2023-05-24T07:57:09.870Z,10.60
2023-05-24T08:00:14.932Z,10.55
2023-05-24T08:03:18.206Z,9.63
2023-05-24T08:06:20.647Z,9.38
2023-05-24T08:09:23.564Z,11.73
2023-05-24T08:12:26.246Z,10.47
2023-05-24T08:15:28.374Z,17.75
2023-05-24T08:18:30.552Z,9.20
2023-05-24T08:21:34.068Z,9.00
2023-05-24T08:24:36.272Z,10.82
2023-05-24T08:27:38.474Z,7.43
2023-05-24T08:30:40.638Z,7.65
2023-05-24T08:33:43.269Z,8.25
2023-05-24T08:36:46.193Z,13.18
2023-05-24T08:39:48.772Z,7.68
2023-05-24T08:42:52.562Z,9.10
2023-05-24T08:45:58.144Z,9.50
2023-05-24T08:49:00.877Z,8.02
2023-05-24T08:52:04.160Z,9.38
2023-05-24T08:55:06.696Z,7.13
2023-05-24T08:58:08.912Z,8.50
2023-05-24T09:01:12.058Z,7.95
2023-05-24T09:04:14.486Z,7.63
2023-05-24T09:07:20.986Z,6.20
2023-05-24T09:10:24.325Z,8.15
2023-05-24T09:13:27.184Z,16.67
2023-05-24T09:16:29.475Z,9.23
2023-05-24T09:19:31.638Z,9.20
2023-05-24T09:22:37.441Z,9.23
2023-05-24T09:25:48.086Z,9.73
2023-05-24T09:28:51.595Z,6.57
2023-05-24T09:31:55.929Z,8.25
2023-05-24T09:34:58.997Z,8.18
2023-05-24T09:38:01.140Z,9.25
2023-05-24T09:41:04.461Z,9.27
2023-05-24T09:44:07.738Z,7.17
2023-05-24T09:47:10.113Z,8.30
2023-05-24T09:50:13.334Z,6.95
2023-05-24T09:53:19.419Z,9.95
2023-05-24T09:56:23.808Z,10.05
2023-05-24T09:59:26.004Z,8.43
2023-05-24T10:02:33.205Z,7.32
2023-05-24T10:05:44.881Z,8.23
2023-05-24T10:08:48.521Z,7.28
2023-05-24T10:11:50.937Z,6.78
2023-05-24T10:14:53.585Z,5.93
2023-05-24T10:17:56.550Z,8.65
2023-05-24T10:20:59.616Z,6.88
2023-05-24T10:24:02.556Z,7.13
2023-05-24T10:27:07.717Z,8.95
2023-05-24T10:30:28.916Z,7.57
2023-05-24T10:33:32.626Z,6.20
2023-05-24T10:36:35.185Z,7.47
2023-05-24T10:39:37.680Z,7.07
2023-05-24T10:42:39.853Z,6.43
2023-05-24T10:45:42.174Z,6.53
2023-05-24T10:48:44.990Z,11.02
2023-05-24T10:51:47.189Z,6.65
2023-05-24T10:55:03.895Z,8.15
2023-05-24T10:58:08.564Z,7.65
2023-05-24T11:01:14.227Z,7.47
2023-05-24T11:04:18.516Z,11.35
2023-05-24T11:07:21.062Z,7.47
2023-05-24T11:10:30.652Z,8.77
2023-05-24T11:13:34.060Z,6.60
2023-05-24T11:16:40.395Z,6.77
2023-05-24T11:19:57.519Z,6.93
2023-05-24T11:23:00.695Z,8.25
2023-05-24T11:26:04.228Z,8.05
2023-05-24T11:29:07.555Z,8.77
2023-05-24T11:32:10.257Z,11.50
2023-05-24T11:35:12.601Z,9.23
2023-05-24T11:38:15.928Z,12.10
2023-05-24T11:41:18.136Z,10.63
2023-05-24T11:44:20.525Z,8.48
2023-05-24T11:47:23.403Z,12.17
2023-05-24T11:50:26.969Z,11.15
2023-05-24T11:53:30.946Z,12.85
2023-05-24T11:56:34.086Z,7.65
2023-05-24T11:59:38.209Z,6.68
2023-05-24T12:02:40.739Z,7.53
2023-05-24T12:05:43.387Z,7.97
2023-05-24T12:08:46.290Z,8.55
2023-05-24T12:11:50.109Z,8.82
2023-05-24T12:14:55.434Z,15.35
2023-05-24T12:17:58.158Z,9.97
2023-05-24T12:21:00.274Z,7.60
2023-05-24T12:24:09.673Z,9.27
2023-05-24T12:27:11.829Z,7.32
2023-05-24T12:30:20.231Z,6.90
2023-05-24T12:33:23.583Z,8.83
2023-05-24T12:36:25.687Z,11.18
2023-05-24T12:39:34.250Z,7.18
2023-05-24T12:42:37.191Z,6.68
2023-05-24T12:45:39.297Z,7.88
2023-05-24T12:48:41.544Z,8.03
2023-05-24T12:51:43.647Z,6.90
2023-05-24T12:54:46.501Z,7.25
2023-05-24T12:57:54.709Z,7.15
2023-05-24T13:00:57.069Z,9.00
2023-05-24T13:03:59.270Z,7.37
2023-05-24T13:07:02.971Z,6.25
2023-05-24T13:10:06.042Z,6.40
2023-05-24T13:13:08.266Z,7.00
2023-05-24T13:16:10.986Z,10.43
2023-05-24T13:19:13.446Z,8.60
2023-05-24T13:22:15.626Z,6.55
2023-05-24T13:25:17.749Z,7.03
2023-05-24T13:28:20.259Z,7.32
2023-05-24T13:31:22.501Z,5.93
2023-05-24T13:34:27.341Z,6.40
2023-05-24T13:37:30.072Z,6.03
2023-05-24T13:40:32.491Z,5.25
2023-05-24T13:43:34.626Z,7.00
2023-05-24T13:46:36.923Z,7.50
2023-05-24T13:49:39.189Z,6.23
2023-05-24T13:52:41.316Z,7.40
2023-05-24T13:55:43.465Z,5.68
2023-05-24T13:58:45.924Z,6.68
2023-05-24T14:01:48.182Z,6.20
2023-05-24T14:04:50.362Z,9.10
2023-05-24T14:07:52.533Z,6.07
2023-05-24T14:10:54.623Z,5.57
2023-05-24T14:14:57.112Z,7.05
2023-05-24T14:17:18.935Z,10.38
2023-05-24T14:20:21.046Z,8.27
2023-05-24T14:23:23.237Z,6.28
2023-05-24T14:26:25.560Z,6.72
2023-05-24T14:29:27.857Z,7.20
2023-05-24T14:32:30.117Z,9.18
2023-05-24T14:35:38.133Z,6.67
2023-05-24T14:38:40.440Z,6.07
2023-05-24T14:41:42.619Z,7.63
2023-05-24T14:44:44.731Z,5.95
2023-05-24T14:47:46.959Z,4.80
2023-05-24T14:50:49.083Z,6.77
2023-05-24T14:53:51.217Z,8.52
2023-05-24T14:56:53.263Z,5.30
2023-05-24T14:59:55.446Z,12.20
2023-05-24T15:02:57.701Z,6.88
2023-05-24T15:05:59.857Z,6.63
2023-05-24T15:09:02.805Z,5.43
2023-05-24T15:12:06.101Z,8.63
2023-05-24T15:15:09.034Z,7.18
2023-05-24T15:18:11.710Z,7.10
2023-05-24T15:21:13.884Z,7.67
2023-05-24T15:24:16.372Z,9.20
2023-05-24T15:27:18.539Z,7.97
2023-05-24T15:30:20.907Z,7.80
2023-05-24T15:33:23.201Z,10.93
2023-05-24T15:36:25.424Z,8.07
2023-05-24T15:39:27.491Z,8.27
2023-05-24T15:42:30.654Z,7.47
2023-05-24T15:45:33.178Z,13.65
2023-05-24T15:48:35.272Z,6.97
2023-05-24T15:54:42.346Z,7.32
2023-05-24T15:57:44.450Z,10.05
2023-05-24T16:00:46.664Z,8.23
2023-05-24T16:03:48.887Z,7.38
2023-05-24T16:06:51.076Z,6.60
2023-05-24T16:09:53.303Z,6.60
2023-05-24T16:12:56.108Z,9.15
2023-05-24T16:15:58.156Z,7.85
2023-05-24T16:19:00.246Z,5.95
2023-05-24T16:22:02.316Z,7.00
2023-05-24T16:25:04.907Z,7.03
2023-05-24T16:28:07.186Z,8.48
2023-05-24T16:31:09.285Z,6.57
2023-05-24T16:34:11.365Z,5.72
2023-05-24T16:37:13.535Z,9.07
2023-05-24T16:40:15.662Z,8.75
2023-05-24T16:43:18.068Z,9.48
2023-05-24T16:46:20.198Z,7.88
2023-05-24T16:49:22.467Z,6.65
2023-05-24T16:52:24.649Z,5.53
2023-05-24T16:55:26.902Z,4.30
2023-05-24T16:58:29.056Z,6.78
2023-05-24T17:01:32.219Z,5.60
2023-05-24T17:04:34.617Z,4.65
2023-05-24T17:07:37.155Z,5.63
2023-05-24T17:10:39.619Z,4.63
2023-05-24T17:13:41.851Z,3.17
2023-05-24T17:16:44.071Z,4.20
2023-05-24T17:19:46.305Z,3.95
2023-05-24T17:22:49.713Z,4.63
2023-05-24T17:25:52.436Z,6.32
2023-05-24T17:28:54.541Z,7.15
2023-05-24T17:31:56.716Z,4.93
2023-05-24T17:34:58.823Z,4.75
2023-05-24T17:38:01.096Z,4.50
2023-05-24T17:41:03.624Z,4.93
2023-05-24T17:44:05.677Z,8.02
2023-05-24T17:47:07.886Z,8.63
2023-05-24T17:50:10.695Z,7.22
2023-05-24T17:53:26.628Z,8.27
2023-05-24T17:56:32.242Z,7.20
2023-05-24T17:59:34.578Z,6.50
2023-05-24T18:02:36.747Z,9.05
2023-05-24T18:05:38.907Z,8.25
2023-05-24T18:08:43.901Z,9.73
2023-05-24T18:11:46.658Z,9.23
2023-05-24T18:14:48.779Z,7.55
2023-05-24T18:17:51.536Z,9.82
2023-05-24T18:20:53.669Z,10.80
2023-05-24T18:23:55.834Z,13.17
2023-05-24T18:26:59.722Z,7.07
2023-05-24T18:30:01.905Z,6.90
2023-05-24T18:33:08.098Z,6.65
2023-05-24T18:36:12.774Z,6.82
2023-05-24T18:39:15.154Z,5.27
2023-05-24T18:42:17.457Z,6.03
2023-05-24T18:45:19.917Z,5.45
2023-05-24T18:48:22.300Z,5.55
2023-05-24T18:51:24.420Z,7.95
2023-05-24T18:54:26.556Z,8.00
2023-05-24T18:57:29.928Z,7.03
2023-05-24T19:00:32.079Z,7.70
2023-05-24T19:03:34.293Z,5.68
2023-05-24T19:06:36.677Z,7.00
2023-05-24T19:09:38.863Z,6.63
2023-05-24T19:12:40.984Z,6.60
2023-05-24T19:15:43.175Z,6.47
2023-05-24T19:18:45.725Z,6.45
2023-05-24T19:21:48.208Z,7.38
2023-05-24T19:24:50.238Z,7.60
2023-05-24T19:27:59.378Z,7.43
2023-05-24T19:31:02.745Z,5.97
2023-05-24T19:34:04.773Z,8.65
2023-05-24T19:37:06.942Z,7.38
2023-05-24T19:40:09.344Z,9.20
2023-05-24T19:43:11.511Z,9.52
2023-05-24T19:46:14.816Z,7.13
2023-05-24T19:49:17.066Z,8.68
2023-05-24T19:52:20.573Z,10.05
2023-05-24T19:55:22.662Z,10.83
2023-05-24T19:58:26.152Z,9.15
2023-05-24T20:01:28.217Z,8.27
2023-05-24T20:04:30.444Z,7.32
2023-05-24T20:07:32.904Z,8.10
2023-05-24T20:10:36.544Z,10.13
2023-05-24T20:13:38.791Z,18.02
2023-05-24T20:16:40.961Z,10.57
2023-05-24T20:19:43.264Z,8.25
2023-05-24T20:22:45.447Z,9.68
2023-05-24T20:25:47.612Z,11.60
2023-05-24T20:28:51.445Z,10.85
2023-05-24T20:31:53.622Z,13.05
2023-05-24T20:34:55.787Z,8.70
2023-05-24T20:37:57.936Z,11.13
2023-05-24T20:41:00.211Z,12.50
2023-05-24T20:44:02.346Z,9.57
2023-05-24T20:47:04.522Z,9.25
2023-05-24T20:50:07.791Z,10.55
2023-05-24T20:53:09.875Z,11.82
2023-05-24T20:56:12.283Z,12.37
2023-05-24T20:59:14.354Z,11.00
2023-05-24T21:02:16.453Z,10.15
2023-05-24T21:05:18.460Z,13.27
2023-05-24T21:08:20.514Z,10.52
2023-05-24T21:11:22.682Z,11.63
2023-05-24T21:14:26.628Z,12.68
2023-05-24T21:17:28.730Z,12.38
2023-05-24T21:20:30.951Z,11.82
2023-05-24T21:23:33.097Z,12.07
2023-05-24T21:26:35.168Z,12.63
2023-05-24T21:29:38.164Z,12.98
2023-05-24T21:32:40.231Z,15.43
2023-05-24T21:35:42.477Z,13.55
2023-05-24T21:38:45.098Z,13.15
2023-05-24T21:41:47.169Z,12.53
2023-05-24T21:44:49.229Z,13.38
2023-05-24T21:47:51.331Z,15.27
2023-05-24T21:50:53.437Z,15.57
2023-05-24T21:53:55.485Z,17.27
2023-05-24T21:56:57.667Z,14.07
2023-05-24T21:59:59.710Z,15.85
2023-05-24T22:03:01.788Z,16.95
2023-05-24T22:06:04.185Z,14.40
2023-05-24T22:09:06.932Z,15.27
2023-05-24T22:12:09.075Z,15.67
2023-05-24T22:15:11.311Z,16.30
2023-05-24T22:18:17.567Z,16.73
2023-05-24T22:21:21.665Z,17.85
2023-05-24T22:24:24.481Z,16.13
2023-05-24T22:27:27.263Z,18.00
2023-05-24T22:30:30.150Z,19.05
2023-05-24T22:33:32.186Z,19.48
2023-05-24T22:36:34.870Z,26.52
2023-05-24T22:39:36.969Z,19.02
2023-05-24T22:42:39.047Z,23.27
2023-05-24T22:45:41.236Z,18.80
2023-05-24T22:48:43.537Z,20.02
2023-05-24T22:51:47.013Z,21.55
2023-05-24T22:54:49.070Z,17.83
2023-05-24T22:57:51.131Z,19.33
2023-05-24T23:00:53.249Z,22.10
2023-05-24T23:04:02.077Z,22.13
2023-05-24T23:07:10.044Z,21.55
2023-05-24T23:10:12.137Z,21.52
2023-05-24T23:13:18.939Z,20.93
2023-05-24T23:16:20.995Z,24.13
2023-05-24T23:19:23.077Z,21.35
2023-05-24T23:22:26.357Z,19.38
2023-05-24T23:25:28.524Z,17.35
2023-05-24T23:28:30.958Z,18.60
2023-05-24T23:31:33.058Z,18.98
2023-05-24T23:34:35.254Z,18.15
2023-05-24T23:37:37.305Z,19.95
2023-05-24T23:40:39.392Z,21.60
2023-05-24T23:43:41.511Z,22.20
2023-05-24T23:46:43.590Z,17.75
2023-05-24T23:49:45.761Z,20.27
2023-05-24T23:52:48.152Z,25.00
2023-05-24T23:55:50.215Z,19.40
2023-05-24T23:58:53.045Z,19.73
